Parkland Airport

CPL6 · 艾伯塔, 加拿大

罗盘
风向 的 风向 180° Parkland Airport 8/26
风: 2 kt, 1 beaufort


2 kt
改变
0 2.000 4.000 6.000 8.000 10.000
BKN 7.100 ft
OVC 9.000 ft
METAR CZVL 051400Z AUTO 18002KT 9SM BKN071 OVC090 M17/M19 A2994 RMK SLP190

METAR Parkland Airport - CPL6

Parkland Airport是,加拿大中的小机场。 该机场有一条跑道: 8/26. 该领域的国际民航组织标志是CPL6.

这份报告是针对2022年12月5日 07:00, 当地时间在Edmonton / Villeneuve Airport进行的。

机场观察

风向为180°,速度为2 kt。

可见度为9 mi。

有碎云在7.100 ft的高度 和 乌云密布在9.000 ft的高度。 破损或更高的上限为7.100 ft。

温度为-17 °C,阵风为-22 °C。 露点为-19 °C,相对湿度为85%。 海平面上的气压为29,94 inHg (QNH)。

白天

今天,太阳从08:34升起,在16:17降落。 这适用于Parkland Airport,世界夏令时可能有所不同。 当地时间与世界标准时间之间的时差为-7 小时。 当前,没有夏令时有效。

公司介绍

在这个机场,你可以找到飞行学校。 本场上唯一已知的公司是Edmonton Flying Club。

体会

到Vliegles.nl去找飞行课程,跳伞和其他飞行体验。 浏览页面,了解Parkland Airport附近所有可用的活动。 你也可以使用搜索功能来寻找你所在地附近的特定飞行课程、跳伞或其他飞行体验。

跑道

Id 标题 侧风 逆风 侧风 %
8/26 080°-260° 2 kt 98 %

逆风成分最大的方向会被突出显示,并用于横风计算。 这并不一定意味着这个方向在使用。

乌云

7.100 ft BKN 碎云
9.000 ft OVC 乌云密布

温度 & 天气

温度 -17 °C
露点 -19 °C
相对湿度 85%
风寒 -22 °C
Kp-index 0 (0-9)

评论

SLP190海平面压力为30,09 inHg (30,09 inHg)

白天

日出
08:35 (26m)
中午
12:26
日落
16:16

小工具

你想在你的网站上有一个关于Parkland Airport的当前航空天气(METAR)的小部件吗?

显示HTML代码

我们和第三方通过cookies跟踪您在我们网站上的互联网行为。如果你继续,我们认为你同意我们的饼干政策